createdAt,value
2019-02-24T00:03:23.439Z,-1.10
2019-02-24T00:08:26.890Z,-1.10
2019-02-24T00:13:30.298Z,-1.10
2019-02-24T00:18:33.692Z,-1.20
2019-02-24T00:23:37.083Z,-1.20
2019-02-24T00:28:40.472Z,-1.30
2019-02-24T00:33:43.863Z,-1.30
2019-02-24T00:38:47.271Z,-1.30
2019-02-24T00:43:50.680Z,-1.40
2019-02-24T00:48:54.069Z,-1.40
2019-02-24T00:53:57.457Z,-1.50
2019-02-24T00:59:00.847Z,-1.50
2019-02-24T01:04:04.250Z,-1.50
2019-02-24T01:09:07.646Z,-1.50
2019-02-24T01:14:11.041Z,-1.60
2019-02-24T01:19:14.432Z,-1.60
2019-02-24T01:24:17.913Z,-1.70
2019-02-24T01:29:21.294Z,-1.70
2019-02-24T01:34:24.695Z,-1.80
2019-02-24T01:39:28.091Z,-1.80
2019-02-24T01:44:31.478Z,-1.80
2019-02-24T01:49:34.883Z,-1.90
2019-02-24T01:54:38.274Z,-1.90
2019-02-24T01:59:41.654Z,-1.90
2019-02-24T02:04:45.043Z,-1.90
2019-02-24T02:09:48.466Z,-2.00
2019-02-24T02:14:51.847Z,-2.00
2019-02-24T02:19:55.240Z,-2.10
2019-02-24T02:24:58.656Z,-2.10
2019-02-24T02:30:02.033Z,-2.20
2019-02-24T02:35:07.772Z,-2.20
2019-02-24T02:40:11.170Z,-2.20
2019-02-24T02:45:14.645Z,-2.30
2019-02-24T02:50:18.034Z,-2.30
2019-02-24T02:55:21.421Z,-2.30
2019-02-24T03:00:32.039Z,-2.30
2019-02-24T03:05:35.468Z,-2.40
2019-02-24T03:10:38.845Z,-2.40
2019-02-24T03:15:42.244Z,-2.40
2019-02-24T03:20:45.651Z,-2.50
2019-02-24T03:25:49.058Z,-2.50
2019-02-24T03:30:52.469Z,-2.50
2019-02-24T03:35:55.839Z,-2.50
2019-02-24T03:40:59.247Z,-2.50
2019-02-24T03:46:02.627Z,-2.60
2019-02-24T03:51:06.004Z,-2.60
2019-02-24T03:56:09.400Z,-2.70
2019-02-24T04:01:12.794Z,-2.70
2019-02-24T04:06:16.187Z,-2.70
2019-02-24T04:11:19.586Z,-2.80
2019-02-24T04:16:22.955Z,-2.80
2019-02-24T04:26:38.564Z,-2.80
2019-02-24T04:31:41.970Z,-2.90
2019-02-24T04:36:45.349Z,-2.90
2019-02-24T04:41:48.738Z,-2.90
2019-02-24T04:46:52.133Z,-2.90
2019-02-24T04:51:55.511Z,-3.00
2019-02-24T04:56:58.900Z,-3.00
2019-02-24T05:02:02.296Z,-3.00
2019-02-24T05:07:05.689Z,-3.00
2019-02-24T05:12:09.082Z,-3.10
2019-02-24T05:17:12.508Z,-3.10
2019-02-24T05:22:15.929Z,-3.10
2019-02-24T05:27:19.318Z,-3.10
2019-02-24T05:32:22.703Z,-3.20
2019-02-24T05:37:26.097Z,-3.20
2019-02-24T05:42:29.484Z,-3.20
2019-02-24T05:47:32.888Z,-3.20
2019-02-24T05:52:36.288Z,-3.20
2019-02-24T05:57:39.682Z,-3.30
2019-02-24T06:02:43.075Z,-3.30
2019-02-24T06:07:46.461Z,-3.30
2019-02-24T06:12:49.851Z,-3.30
2019-02-24T06:17:53.229Z,-3.30
2019-02-24T06:22:56.635Z,-3.30
2019-02-24T06:28:00.028Z,-3.30
2019-02-24T06:33:03.421Z,-3.30
2019-02-24T06:38:06.817Z,-3.30
2019-02-24T06:43:10.275Z,-3.30
2019-02-24T06:48:13.671Z,-3.30
2019-02-24T06:53:17.063Z,-3.30
2019-02-24T06:58:20.448Z,-3.20
2019-02-24T07:03:23.858Z,-3.20
2019-02-24T07:08:27.253Z,-3.10
2019-02-24T07:13:30.651Z,-3.10
2019-02-24T07:18:34.041Z,-3.00
2019-02-24T07:23:37.456Z,-2.90
2019-02-24T07:28:40.831Z,-2.80
2019-02-24T07:33:44.284Z,-2.70
2019-02-24T07:38:48.138Z,-2.60
2019-02-24T07:43:51.547Z,-2.50
2019-02-24T07:48:54.941Z,-2.30
2019-02-24T07:53:58.331Z,-2.20
2019-02-24T07:59:01.739Z,-2.00
2019-02-24T08:04:05.104Z,-1.80
2019-02-24T08:09:08.504Z,-1.60
2019-02-24T08:14:11.892Z,-1.40
2019-02-24T08:19:15.275Z,-1.10
2019-02-24T08:24:18.693Z,-1.00
2019-02-24T08:29:22.083Z,-1.00
2019-02-24T08:34:25.484Z,-0.80
2019-02-24T08:39:28.875Z,-0.50
2019-02-24T08:44:32.264Z,-0.10
2019-02-24T08:49:35.653Z,0.30
2019-02-24T08:54:39.023Z,0.60
2019-02-24T08:59:42.411Z,1.00
2019-02-24T09:04:45.799Z,1.40
2019-02-24T09:09:49.186Z,1.80
2019-02-24T09:14:52.567Z,2.10
2019-02-24T09:19:55.956Z,2.40
2019-02-24T09:24:59.332Z,2.70
2019-02-24T09:30:03.082Z,2.90
2019-02-24T09:35:07.809Z,3.00
2019-02-24T09:40:12.145Z,3.20
2019-02-24T09:45:15.539Z,3.30
2019-02-24T09:50:18.945Z,3.40
2019-02-24T09:55:22.315Z,3.50
2019-02-24T10:00:25.772Z,3.70
2019-02-24T10:05:29.148Z,4.00
2019-02-24T10:10:32.542Z,4.20
2019-02-24T10:15:35.925Z,4.30
2019-02-24T10:20:39.315Z,4.40
2019-02-24T10:25:42.703Z,4.50
2019-02-24T10:30:46.095Z,4.50
2019-02-24T10:35:49.487Z,4.60
2019-02-24T10:40:52.868Z,4.60
2019-02-24T10:45:56.255Z,4.60
2019-02-24T10:50:59.643Z,4.70
2019-02-24T10:56:03.024Z,4.70
2019-02-24T11:01:06.472Z,4.90
2019-02-24T11:06:09.886Z,4.90
2019-02-24T11:11:13.273Z,5.00
2019-02-24T11:16:16.667Z,5.00
2019-02-24T11:21:20.059Z,5.00
2019-02-24T11:26:23.452Z,4.90
2019-02-24T11:31:26.844Z,4.90
2019-02-24T11:36:30.227Z,4.90
2019-02-24T11:41:33.621Z,5.00
2019-02-24T11:46:37.027Z,5.20
2019-02-24T11:51:40.420Z,5.30
2019-02-24T11:56:43.815Z,5.30
2019-02-24T12:01:47.902Z,5.40
2019-02-24T12:06:51.349Z,5.50
2019-02-24T12:11:54.806Z,5.50
2019-02-24T12:16:58.189Z,5.60
2019-02-24T12:22:01.584Z,5.80
2019-02-24T12:27:05.028Z,5.80
2019-02-24T12:32:08.415Z,5.80
2019-02-24T12:37:11.872Z,5.80
2019-02-24T12:42:15.901Z,5.80
2019-02-24T12:47:19.308Z,5.80
2019-02-24T12:52:22.682Z,5.90
2019-02-24T12:57:26.062Z,6.00
2019-02-24T13:02:29.436Z,6.10
2019-02-24T13:07:32.851Z,6.20
2019-02-24T13:12:36.279Z,6.40
2019-02-24T13:17:40.359Z,6.50
2019-02-24T13:22:45.852Z,6.70
2019-02-24T13:27:49.012Z,6.70
2019-02-24T13:32:52.402Z,6.90
2019-02-24T13:37:55.935Z,7.20
2019-02-24T13:42:59.328Z,7.30
2019-02-24T13:48:02.708Z,7.50
2019-02-24T13:53:06.090Z,7.70
2019-02-24T13:58:09.502Z,8.00
2019-02-24T14:03:12.927Z,8.30
2019-02-24T14:08:16.309Z,8.50
2019-02-24T14:13:19.714Z,8.70
2019-02-24T14:18:23.124Z,8.80
2019-02-24T14:23:26.579Z,9.00
2019-02-24T14:28:29.960Z,9.10
2019-02-24T14:33:33.359Z,9.20
2019-02-24T14:38:36.744Z,9.40
2019-02-24T14:43:40.131Z,9.40
2019-02-24T14:48:44.800Z,9.50
2019-02-24T14:53:48.293Z,9.60
2019-02-24T14:58:51.745Z,9.60
2019-02-24T15:03:55.147Z,9.60
2019-02-24T15:08:58.540Z,9.60
2019-02-24T15:14:01.927Z,9.60
2019-02-24T15:19:05.378Z,9.50
2019-02-24T15:24:08.766Z,9.50
2019-02-24T15:29:12.167Z,9.50
2019-02-24T15:34:15.544Z,9.50
2019-02-24T15:39:18.961Z,9.40
2019-02-24T15:44:22.335Z,9.30
2019-02-24T15:49:25.720Z,9.20
2019-02-24T15:54:29.102Z,9.10
2019-02-24T15:59:32.490Z,9.00
2019-02-24T16:04:35.928Z,9.00
2019-02-24T16:09:39.362Z,8.90
2019-02-24T16:14:42.751Z,8.80
2019-02-24T16:19:46.160Z,8.70
2019-02-24T16:24:49.595Z,8.50
2019-02-24T16:29:52.951Z,8.40
2019-02-24T16:34:56.348Z,8.30
2019-02-24T16:39:59.718Z,8.10
2019-02-24T16:45:03.263Z,7.90
2019-02-24T16:50:12.143Z,7.70
2019-02-24T16:55:16.469Z,7.60
2019-02-24T17:00:22.136Z,7.30
2019-02-24T17:05:25.591Z,7.10
2019-02-24T17:10:29.512Z,7.00
2019-02-24T17:15:32.889Z,6.70
2019-02-24T17:20:36.277Z,6.60
2019-02-24T17:25:39.669Z,6.40
2019-02-24T17:30:43.052Z,6.20
2019-02-24T17:35:46.433Z,6.00
2019-02-24T17:40:49.820Z,5.90
2019-02-24T17:45:53.215Z,5.70
2019-02-24T17:50:56.600Z,5.60
2019-02-24T17:55:59.971Z,5.40
2019-02-24T18:01:04.831Z,5.30
2019-02-24T18:06:08.217Z,5.10
2019-02-24T18:11:11.590Z,5.00
2019-02-24T18:16:14.974Z,4.80
2019-02-24T18:21:18.412Z,4.70
2019-02-24T18:26:21.795Z,4.60
2019-02-24T18:31:25.169Z,4.40
2019-02-24T18:36:28.560Z,4.30
2019-02-24T18:41:31.931Z,4.20
2019-02-24T18:46:35.318Z,4.00
2019-02-24T18:51:38.691Z,3.90
2019-02-24T18:56:42.143Z,3.80
2019-02-24T19:01:45.528Z,3.70
2019-02-24T19:06:48.956Z,3.50
2019-02-24T19:11:52.319Z,3.40
2019-02-24T19:16:57.176Z,3.30
2019-02-24T19:22:00.659Z,3.20
2019-02-24T19:27:04.053Z,3.10
2019-02-24T19:32:07.448Z,3.00
2019-02-24T19:37:10.823Z,2.90
2019-02-24T19:42:14.200Z,2.90
2019-02-24T19:47:17.579Z,2.70
2019-02-24T19:52:20.982Z,2.60
2019-02-24T19:57:24.382Z,2.50
2019-02-24T20:02:27.779Z,2.50
2019-02-24T20:07:31.163Z,2.40
2019-02-24T20:12:34.551Z,2.30
2019-02-24T20:17:38.005Z,2.20
2019-02-24T20:22:41.543Z,2.10
2019-02-24T20:27:45.002Z,2.00
2019-02-24T20:32:48.399Z,2.00
2019-02-24T20:37:51.780Z,1.90
2019-02-24T20:42:55.160Z,1.80
2019-02-24T20:47:58.549Z,1.70
2019-02-24T20:53:01.949Z,1.70
2019-02-24T20:58:05.315Z,1.60
2019-02-24T21:03:08.698Z,1.50
2019-02-24T21:08:12.074Z,1.50
2019-02-24T21:13:16.821Z,1.40
2019-02-24T21:18:20.321Z,1.30
2019-02-24T21:23:23.710Z,1.20
2019-02-24T21:28:33.513Z,1.20
2019-02-24T21:33:36.932Z,1.10
2019-02-24T21:38:40.316Z,1.10
2019-02-24T21:43:43.728Z,1.00
2019-02-24T21:48:47.101Z,0.90
2019-02-24T21:53:50.475Z,0.90
2019-02-24T21:58:53.855Z,0.80
2019-02-24T22:03:57.231Z,0.80
2019-02-24T22:09:00.615Z,0.70
2019-02-24T22:14:03.997Z,0.70
2019-02-24T22:19:07.368Z,0.60
2019-02-24T22:24:10.751Z,0.60
2019-02-24T22:29:14.135Z,0.50
2019-02-24T22:34:17.521Z,0.50
2019-02-24T22:39:20.900Z,0.40
2019-02-24T22:44:24.308Z,0.40
2019-02-24T22:49:27.781Z,0.30
2019-02-24T22:54:31.164Z,0.30
2019-02-24T22:59:34.544Z,0.20
2019-02-24T23:04:37.927Z,0.20
2019-02-24T23:09:41.315Z,0.10
2019-02-24T23:14:44.888Z,0.10
2019-02-24T23:19:48.279Z,0.00
2019-02-24T23:24:51.666Z,0.00
2019-02-24T23:29:55.070Z,0.00
2019-02-24T23:34:58.462Z,-0.10
2019-02-24T23:40:01.853Z,-0.10
2019-02-24T23:45:11.004Z,-0.20
2019-02-24T23:50:14.502Z,-0.20
2019-02-24T23:55:17.919Z,-0.30
